Time;durP1;ratioP1;P1;durP2;ratioP2;P2;SDS_P1;SDS_P2;PMS_P1;PMS_P2;Temp;Humidity;BMP_temperature;BMP_pressure;BME280_temperature;BME280_humidity;BME280_pressure;Samples;Min_cycle;Max_cycle;Signal;HPM_P1;HPM_P2
2022/05/29 00:02:10;;;;;;;10.80;4.88;;;;;;;18.94;85.71;99552.84;5092585;28;20603;-30
2022/05/29 00:04:36;;;;;;;;;;;;;;;19.12;84.67;99560.19;5092928;28;20027;-31
2022/05/29 00:07:04;;;;;;;13.38;4.75;;;;;;;19.02;85.34;99565.72;5110612;28;19972;-28
2022/05/29 00:09:39;;;;;;;17.70;6.22;;;;;;;19.11;85.48;99572.13;5110739;28;20102;-30
2022/05/29 00:12:07;;;;;;;13.43;5.13;;;;;;;18.77;88.57;99567.56;5092191;28;20036;-29
2022/05/29 00:14:34;;;;;;;17.17;5.37;;;;;;;18.87;88.26;99570.19;5110745;28;20116;-29
2022/05/29 00:17:00;;;;;;;15.15;5.30;;;;;;;18.88;87.72;99544.00;5110175;28;20019;-31
2022/05/29 00:19:26;;;;;;;10.52;4.88;;;;;;;18.82;86.38;99567.56;5092007;28;20138;-30
2022/05/29 00:21:52;;;;;;;15.65;5.30;;;;;;;18.83;86.24;99557.56;5110434;28;20106;-30
2022/05/29 00:24:17;;;;;;;12.75;5.60;;;;;;;18.79;86.37;99551.91;5091746;28;20039;-31
2022/05/29 00:26:43;;;;;;;14.15;5.38;;;;;;;18.69;86.83;99557.38;5110151;28;20030;-30
2022/05/29 00:29:09;;;;;;;13.43;6.13;;;;;;;18.72;86.89;99550.63;5091764;28;20026;-31
2022/05/29 00:31:35;;;;;;;14.88;5.30;;;;;;;18.74;86.68;99556.53;5091802;28;20023;-31
2022/05/29 00:34:01;;;;;;;16.60;5.90;;;;;;;18.64;88.08;99530.44;5109773;28;20035;-29
2022/05/29 00:36:31;;;;;;;15.77;6.20;;;;;;;18.41;90.91;99519.31;5110148;28;20035;-29
2022/05/29 00:38:57;;;;;;;10.70;5.15;;;;;;;18.60;89.64;99540.19;5091752;28;20035;-34
2022/05/29 00:41:22;;;;;;;18.45;5.60;;;;;;;18.42;91.61;99537.09;5090156;28;20047;-34
2022/05/29 00:44:15;;;;;;;14.20;5.90;;;;;;;18.36;90.91;99535.53;5109920;28;20036;-31
2022/05/29 00:46:47;;;;;;;13.57;5.30;;;;;;;18.40;90.25;99525.78;5110124;28;20028;-30
2022/05/29 00:49:15;;;;;;;12.15;6.30;;;;;;;18.43;89.51;99537.94;5090984;28;20031;-28
2022/05/29 00:52:00;;;;;;;12.73;5.70;;;;;;;18.39;90.52;99540.38;5092016;28;20123;-29
2022/05/29 00:54:28;;;;;;;14.85;5.97;;;;;;;18.56;87.87;99520.25;5109158;28;20328;-29
2022/05/29 00:56:53;;;;;;;12.40;5.72;;;;;;;18.56;87.57;99531.06;5110131;28;20036;-29
2022/05/29 00:59:26;;;;;;;13.70;5.47;;;;;;;18.59;87.09;99527.78;5109436;28;20039;-29
2022/05/29 01:01:53;;;;;;;12.32;5.45;;;;;;;18.52;87.36;99497.63;5091318;28;20021;-28
2022/05/29 01:04:19;;;;;;;14.10;5.05;;;;;;;18.65;86.99;99513.13;5109520;28;20109;-30
2022/05/29 01:06:44;;;;;;;13.23;5.30;;;;;;;18.52;87.70;99497.63;5110091;28;20031;-29
2022/05/29 01:09:11;;;;;;;13.82;5.22;;;;;;;18.42;89.03;99499.31;5109278;28;20055;-32
2022/05/29 01:12:06;;;;;;;13.85;5.82;;;;;;;18.48;89.88;99498.16;5090914;28;20020;-29
2022/05/29 01:14:40;;;;;;;15.93;6.68;;;;;;;18.40;89.59;99482.59;5108508;28;20131;-31
2022/05/29 01:17:05;;;;;;;11.80;5.70;;;;;;;18.03;91.61;99478.59;5109399;28;20019;-29
2022/05/29 01:19:46;;;;;;;11.15;5.53;;;;;;;17.91;92.59;99471.97;5109253;28;20023;-33
2022/05/29 01:22:11;;;;;;;15.05;5.90;;;;;;;18.24;90.43;99471.13;5090881;28;20031;-33
2022/05/29 01:24:50;;;;;;;11.77;5.82;;;;;;;18.22;89.53;99488.69;5108932;28;20035;-30
2022/05/29 01:27:52;;;;;;;13.70;5.88;;;;;;;18.01;90.35;99509.66;5109158;28;20031;-33
2022/05/29 01:30:21;;;;;;;16.40;6.68;;;;;;;17.93;89.77;99508.38;5109247;28;20024;-29
2022/05/29 01:33:05;;;;;;;13.45;5.70;;;;;;;18.04;89.89;99511.78;5090479;28;20030;-31
2022/05/29 01:35:39;;;;;;;16.70;5.82;;;;;;;18.04;89.39;99488.31;5109228;28;20407;-28
2022/05/29 01:38:26;;;;;;;12.43;5.85;;;;;;;18.29;88.92;99500.00;5108939;28;20036;-29
2022/05/29 01:41:00;;;;;;;11.63;5.63;;;;;;;17.99;90.64;99485.66;5108390;28;20051;-31
2022/05/29 01:43:40;;;;;;;18.35;6.50;;;;;;;18.00;90.75;99495.38;5090125;28;20022;-29
2022/05/29 01:46:11;;;;;;;13.02;5.82;;;;;;;18.31;89.49;99514.00;5090026;28;20419;-30
2022/05/29 01:48:50;;;;;;;14.00;5.75;;;;;;;18.15;89.64;99516.03;5090222;28;20031;-35
2022/05/29 01:51:22;;;;;;;16.65;6.65;;;;;;;18.15;90.70;99517.94;5089702;28;20024;-29
2022/05/29 01:54:10;;;;;;;13.07;6.03;;;;;;;18.24;90.31;99527.00;5089156;28;20024;-32
2022/05/29 01:56:46;;;;;;;18.25;5.72;;;;;;;18.20;89.82;99534.84;5107540;28;20119;-31
2022/05/29 01:59:17;;;;;;;15.70;5.90;;;;;;;18.29;89.52;99535.06;5089729;28;20110;-32
2022/05/29 02:01:49;;;;;;;12.05;6.05;;;;;;;18.46;89.04;99562.44;5089824;28;20031;-32
2022/05/29 02:04:18;;;;;;;18.75;6.32;;;;;;;18.46;89.23;99575.94;5089489;28;20023;-29
2022/05/29 02:09:40;;;;;;;13.23;6.18;;;;;;;18.41;89.03;99594.91;5108128;28;20123;-32
2022/05/29 02:12:10;;;;;;;14.65;6.20;;;;;;;18.44;89.90;99594.31;5108144;28;20486;-30
2022/05/29 02:14:41;;;;;;;11.98;5.60;;;;;;;18.42;89.10;99580.31;5107808;28;20035;-31
2022/05/29 02:17:26;;;;;;;15.32;6.63;;;;;;;18.37;90.55;99584.94;5089523;28;20031;-29
2022/05/29 02:20:00;;;;;;;16.38;6.13;;;;;;;18.17;90.34;99561.63;5089535;28;20023;-29
2022/05/29 02:22:29;;;;;;;13.63;6.45;;;;;;;18.03;93.02;99573.03;5089833;28;20035;-29
2022/05/29 02:25:01;;;;;;;15.45;6.15;;;;;;;18.32;91.96;99585.78;5107827;28;20430;-34
2022/05/29 02:27:39;;;;;;;16.30;7.10;;;;;;;18.28;91.97;99584.75;5107960;28;20739;-29
2022/05/29 02:30:06;;;;;;;13.98;6.50;;;;;;;18.39;92.17;99594.38;5107781;28;20080;-32
2022/05/29 02:33:04;;;;;;;16.17;5.88;;;;;;;18.37;91.35;99583.06;5089270;28;20020;-29
2022/05/29 02:35:35;;;;;;;15.35;6.88;;;;;;;18.38;91.70;99579.25;5087171;28;20498;-30
2022/05/29 02:38:09;;;;;;;17.83;7.28;;;;;;;18.14;92.69;99568.38;5107828;28;20100;-31
2022/05/29 02:40:53;;;;;;;12.20;6.40;;;;;;;18.17;93.11;99567.03;5089179;28;20063;-30
2022/05/29 02:43:21;;;;;;;15.00;6.68;;;;;;;18.38;91.58;99571.16;5107205;28;20469;-29
2022/05/29 02:45:56;;;;;;;13.82;6.70;;;;;;;18.40;91.30;99552.78;5107292;28;20032;-31
2022/05/29 02:48:52;;;;;;;14.15;7.20;;;;;;;18.23;91.65;99550.50;5107473;28;20051;-29
2022/05/29 02:51:39;;;;;;;15.77;7.13;;;;;;;18.28;92.62;99568.53;5089110;28;20818;-29
2022/05/29 02:54:05;;;;;;;16.10;7.43;;;;;;;18.28;91.30;99580.13;5088929;28;20771;-31
2022/05/29 02:56:30;;;;;;;17.50;8.07;;;;;;;18.17;91.21;99561.63;5107358;28;20273;-34
2022/05/29 02:58:59;;;;;;;14.85;6.82;;;;;;;18.17;91.53;99564.31;5089390;28;20436;-29
2022/05/29 03:01:44;;;;;;;16.55;7.60;;;;;;;18.09;92.93;99554.13;5089146;28;20039;-29
2022/05/29 03:04:33;;;;;;;12.27;6.80;;;;;;;17.97;93.84;99533.69;5088523;28;20028;-29
2022/05/29 03:06:59;;;;;;;15.40;7.57;;;;;;;18.12;93.19;99580.53;5107347;28;20449;-30
2022/05/29 03:09:24;;;;;;;16.02;7.35;;;;;;;17.85;94.90;99608.75;5107615;28;20080;-36
2022/05/29 03:11:50;;;;;;;14.00;6.95;;;;;;;17.62;95.74;99637.97;5088939;28;20032;-31
2022/05/29 03:14:29;;;;;;;21.23;8.15;;;;;;;17.77;96.27;99661.34;5088665;28;20080;-31
2022/05/29 03:17:11;;;;;;;13.68;7.85;;;;;;;17.70;95.95;99655.47;5089116;28;20410;-29
2022/05/29 03:20:13;;;;;;;16.17;7.20;;;;;;;17.70;96.38;99633.09;5089025;28;20145;-32
2022/05/29 03:23:08;;;;;;;18.95;8.25;;;;;;;17.78;96.01;99662.19;5088550;28;20038;-30
2022/05/29 03:25:38;;;;;;;16.23;7.68;;;;;;;17.58;98.35;99663.88;5088425;28;20036;-28
2022/05/29 03:34:05;;;;;;;15.33;8.17;;;;;;;17.43;100.00;99534.53;4861200;27;8158360;-33
2022/05/29 03:36:31;;;;;;;21.20;8.57;;;;;;;17.66;100.00;99565.41;5102873;28;20036;-38
2022/05/29 03:38:56;;;;;;;21.63;9.32;;;;;;;17.77;99.83;99595.81;5104503;28;20119;-32
2022/05/29 03:41:45;;;;;;;16.45;8.45;;;;;;;17.63;100.00;99604.53;5104990;28;20076;-34
2022/05/29 03:44:13;;;;;;;18.88;8.85;;;;;;;17.59;100.00;99567.59;5103297;28;20028;-30
2022/05/29 03:46:43;;;;;;;17.95;9.80;;;;;;;17.78;100.00;99592.06;5104836;28;20035;-29
2022/05/29 03:49:10;;;;;;;13.95;8.00;;;;;;;17.71;100.00;99580.75;5104165;28;20028;-29
2022/05/29 03:51:36;;;;;;;16.58;8.85;;;;;;;17.74;100.00;99569.44;5102972;28;20039;-32
2022/05/29 03:54:03;;;;;;;23.25;8.80;;;;;;;18.03;99.53;99554.16;5103170;28;20051;-29
2022/05/29 03:56:29;;;;;;;18.35;8.82;;;;;;;18.06;98.90;99563.56;5102831;28;20495;-34
2022/05/29 03:58:55;;;;;;;20.73;8.68;;;;;;;18.27;97.94;99561.53;5102535;28;20599;-35
2022/05/29 04:01:21;;;;;;;21.70;9.23;;;;;;;18.50;96.83;99560.00;5102659;28;20027;-33
2022/05/29 04:03:46;;;;;;;16.85;8.27;;;;;;;18.65;95.63;99534.72;5103591;28;20034;-30
2022/05/29 04:06:12;;;;;;;19.73;8.68;;;;;;;18.55;95.79;99508.66;5104071;28;20035;-29
2022/05/29 04:14:06;;;;;;;18.38;9.55;;;;;;;17.93;99.34;99481.38;5103837;28;20038;-32
2022/05/29 04:16:32;;;;;;;21.55;9.00;;;;;;;17.76;100.00;99481.75;5103783;28;20027;-30
2022/05/29 04:18:58;;;;;;;19.08;8.88;;;;;;;17.95;99.58;99484.59;5102256;28;20062;-32
2022/05/29 04:21:23;;;;;;;17.30;9.77;;;;;;;17.96;99.72;99486.22;5103731;28;20454;-34
2022/05/29 04:23:49;;;;;;;17.27;9.18;;;;;;;18.01;100.00;99478.09;5103182;28;20020;-30
2022/05/29 04:26:15;;;;;;;17.67;9.45;;;;;;;18.01;100.00;99480.78;5103531;28;20042;-33
2022/05/29 04:28:41;;;;;;;16.45;8.07;;;;;;;18.05;100.00;99465.63;5101912;28;20414;-34
2022/05/29 04:31:07;;;;;;;15.80;9.02;;;;;;;17.93;100.00;99457.09;5084760;28;20027;-30
2022/05/29 04:33:32;;;;;;;17.90;9.27;;;;;;;18.33;100.00;99484.84;5085090;28;20475;-34
2022/05/29 04:35:58;;;;;;;19.38;9.45;;;;;;;18.18;99.86;99476.88;5102286;28;20101;-30
2022/05/29 04:38:25;;;;;;;15.38;9.50;;;;;;;18.36;100.00;99499.66;5103372;28;20043;-31
2022/05/29 04:40:51;;;;;;;26.65;10.52;;;;;;;18.74;98.87;99511.44;5084700;28;20028;-32
2022/05/29 04:43:17;;;;;;;20.75;10.43;;;;;;;18.77;97.85;99494.63;5080855;28;20039;-32
2022/05/29 04:45:44;;;;;;;21.63;10.20;;;;;;;18.62;97.99;99492.13;5070939;28;20618;-32
2022/05/29 04:48:11;;;;;;;16.17;9.53;;;;;;;18.80;97.49;99504.13;5071291;28;20096;-37
2022/05/29 04:50:37;;;;;;;19.13;10.57;;;;;;;18.87;98.18;99502.66;5071194;28;20284;-36
2022/05/29 04:53:04;;;;;;;17.65;10.32;;;;;;;19.04;97.33;99525.69;5071055;28;20407;-33
2022/05/29 04:55:29;;;;;;;17.65;10.80;;;;;;;19.02;97.39;99525.19;5071005;28;20538;-30
2022/05/29 04:57:55;;;;;;;19.73;11.15;;;;;;;19.08;94.45;99515.94;5089318;28;20164;-33
2022/05/29 05:00:20;;;;;;;21.38;10.80;;;;;;;19.40;93.90;99517.97;5089438;28;20032;-37
2022/05/29 05:02:46;;;;;;;23.02;11.15;;;;;;;19.19;94.88;99500.41;5089105;28;20039;-31
2022/05/29 05:05:13;;;;;;;18.55;10.45;;;;;;;19.20;95.30;99505.50;5089126;28;20110;-33
2022/05/29 05:07:38;;;;;;;19.05;10.20;;;;;;;19.25;95.19;99516.25;5070773;28;20031;-30
2022/05/29 05:10:06;;;;;;;14.32;8.57;;;;;;;19.69;93.16;99530.53;5070856;28;20024;-33
2022/05/29 05:12:31;;;;;;;18.80;10.27;;;;;;;19.72;92.68;99518.38;5070359;28;20077;-32
2022/05/29 05:14:57;;;;;;;14.77;8.82;;;;;;;19.74;92.67;99510.78;5088962;28;20036;-33
2022/05/29 05:17:22;;;;;;;16.02;9.73;;;;;;;19.86;92.09;99530.88;5089422;28;20030;-32
2022/05/29 05:19:48;;;;;;;18.38;9.20;;;;;;;19.85;91.77;99528.47;5088891;28;20403;-33
2022/05/29 05:22:13;;;;;;;17.23;9.43;;;;;;;20.10;91.71;99518.34;5088754;28;20404;-30
2022/05/29 05:24:39;;;;;;;15.68;8.93;;;;;;;20.03;91.31;99518.72;5088979;28;20483;-33
2022/05/29 05:27:07;;;;;;;18.67;9.60;;;;;;;19.91;89.87;99516.47;5088382;28;20032;-29
2022/05/29 05:29:33;;;;;;;18.70;8.20;;;;;;;19.95;92.21;99506.66;5070574;28;20670;-32
2022/05/29 05:31:59;;;;;;;14.85;8.32;;;;;;;20.16;90.28;99503.63;5069883;28;20115;-30
2022/05/29 05:34:24;;;;;;;14.82;8.25;;;;;;;20.36;88.56;99516.81;5066842;28;20048;-29
2022/05/29 05:36:50;;;;;;;15.93;7.30;;;;;;;20.53;87.88;99510.03;5068663;28;20032;-30
2022/05/29 05:39:15;;;;;;;16.30;8.05;;;;;;;20.39;89.40;99516.22;5066983;28;20068;-30
2022/05/29 05:41:40;;;;;;;17.40;8.70;;;;;;;20.50;89.88;99510.63;5067804;28;20123;-32
2022/05/29 05:44:06;;;;;;;18.77;8.48;;;;;;;20.70;89.22;99548.22;5066937;28;20056;-31
2022/05/29 05:46:31;;;;;;;16.05;7.90;;;;;;;20.93;86.67;99523.94;5068211;28;20027;-32
2022/05/29 05:48:57;;;;;;;17.88;8.88;;;;;;;21.04;87.43;99541.59;5068003;28;20039;-30
2022/05/29 05:51:23;;;;;;;12.38;7.20;;;;;;;20.92;85.15;99538.59;5049619;28;20123;-35
2022/05/29 05:53:49;;;;;;;18.92;8.10;;;;;;;20.82;88.84;99526.84;5047335;28;20051;-33
2022/05/29 05:56:17;;;;;;;15.88;7.38;;;;;;;20.89;86.86;99541.91;5046362;28;20021;-30
2022/05/29 05:58:43;;;;;;;;;;;;;;;20.99;86.86;99544.44;5041208;28;20040;-31
2022/05/29 06:01:15;;;;;;;16.05;7.47;;;;;;;20.89;86.71;99521.03;5046181;28;19913;-33
2022/05/29 06:03:41;;;;;;;15.75;8.02;;;;;;;21.03;86.27;99529.16;5037539;28;20496;-31
2022/05/29 06:06:07;;;;;;;15.27;7.43;;;;;;;21.28;85.06;99523.22;5046025;28;20044;-34
2022/05/29 06:08:33;;;;;;;13.93;7.90;;;;;;;21.45;84.61;99532.66;5047422;28;20036;-32
2022/05/29 06:10:59;;;;;;;13.25;8.00;;;;;;;21.57;84.40;99529.44;5045067;28;20040;-33
2022/05/29 06:13:24;;;;;;;13.55;6.53;;;;;;;21.60;81.22;99515.25;5047177;28;20025;-31
2022/05/29 06:15:49;;;;;;;19.42;9.30;;;;;;;22.06;83.02;99539.41;5047210;28;20036;-30
2022/05/29 06:18:17;;;;;;;11.65;7.32;;;;;;;22.17;82.80;99550.03;5047533;28;20082;-32
2022/05/29 06:20:43;;;;;;;18.33;7.43;;;;;;;22.14;79.81;99558.81;5047029;28;20115;-32
2022/05/29 06:23:09;;;;;;;13.93;7.15;;;;;;;22.37;77.57;99573.22;5047073;28;20039;-32
2022/05/29 06:25:38;;;;;;;15.02;7.97;;;;;;;22.34;75.79;99569.19;5045015;28;20036;-31
2022/05/29 06:28:03;;;;;;;12.80;7.38;;;;;;;22.40;80.00;99559.81;5045526;28;20025;-31
2022/05/29 06:30:29;;;;;;;14.45;7.72;;;;;;;22.40;78.40;99559.81;5045339;28;20484;-36
2022/05/29 06:32:55;;;;;;;12.60;6.35;;;;;;;22.24;75.94;99555.88;5046663;28;20102;-32
2022/05/29 06:35:21;;;;;;;18.58;6.88;;;;;;;22.33;75.75;99535.00;5058780;28;20122;-31
2022/05/29 06:37:47;;;;;;;13.95;6.60;;;;;;;22.73;75.65;99559.50;5048523;28;20107;-31
2022/05/29 06:40:14;;;;;;;15.60;6.50;;;;;;;22.58;74.55;99544.41;5048560;28;20028;-30
2022/05/29 06:42:40;;;;;;;17.98;8.05;;;;;;;22.66;73.95;99540.16;5040459;28;20039;-34
2022/05/29 06:45:07;;;;;;;16.23;8.02;;;;;;;22.62;75.04;99529.09;5048648;28;20519;-30
2022/05/29 06:47:33;;;;;;;13.15;6.57;;;;;;;22.82;75.33;99513.34;5066894;28;20538;-30
2022/05/29 06:49:59;;;;;;;14.23;6.22;;;;;;;22.96;73.92;99515.94;5066250;28;20032;-31
2022/05/29 06:52:24;;;;;;;13.73;6.95;;;;;;;22.62;75.56;99507.34;5066315;28;20562;-31
2022/05/29 06:54:50;;;;;;;15.75;6.68;;;;;;;22.39;75.66;99493.03;5066542;28;20032;-31
2022/05/29 06:57:36;;;;;;;12.98;6.55;;;;;;;22.50;75.68;99509.06;5048216;28;20020;-32
2022/05/29 07:08:38;;;;;;;12.98;6.55;;;;;;;22.53;75.75;99506.50;5065031;28;20124;-34
2022/05/29 07:11:25;;;;;;;17.33;6.57;;;;;;;22.82;78.21;99516.88;5066166;28;20033;-40
2022/05/29 07:13:51;;;;;;;14.50;6.25;;;;;;;22.94;75.54;99507.31;5048168;28;20024;-30
2022/05/29 07:16:17;;;;;;;14.55;6.45;;;;;;;22.89;74.56;99510.19;5066610;28;20138;-32
2022/05/29 07:18:43;;;;;;;12.77;6.82;;;;;;;23.14;73.52;99495.09;5066717;28;20112;-29
2022/05/29 07:21:08;;;;;;;17.40;6.70;;;;;;;23.13;75.04;99520.66;5066391;28;20070;-31
2022/05/29 07:23:35;;;;;;;17.17;7.30;;;;;;;23.13;75.01;99520.66;5048555;28;20407;-35
2022/05/29 07:26:01;;;;;;;16.73;7.17;;;;;;;23.20;74.35;99508.22;5048173;28;20090;-33
2022/05/29 07:28:27;;;;;;;14.10;6.65;;;;;;;23.50;73.89;99534.81;5066345;28;20452;-31
2022/05/29 07:30:54;;;;;;;17.80;6.80;;;;;;;23.77;72.25;99512.00;5048152;28;20487;-30
2022/05/29 07:33:20;;;;;;;15.27;6.75;;;;;;;23.84;73.19;99510.41;5048014;28;20423;-31
2022/05/29 07:35:46;;;;;;;16.05;6.47;;;;;;;23.72;72.78;99509.38;5047997;28;20064;-30
2022/05/29 07:38:12;;;;;;;11.65;6.18;;;;;;;23.93;73.51;99521.28;5066411;28;20027;-32
2022/05/29 07:40:37;;;;;;;13.82;6.30;;;;;;;24.01;70.84;99517.75;5047993;28;20463;-30
2022/05/29 07:43:18;;;;;;;12.23;6.13;;;;;;;24.10;71.06;99519.66;5066379;28;20024;-31
2022/05/29 07:45:56;;;;;;;14.73;6.13;;;;;;;24.31;73.66;99520.56;5048040;28;20115;-32
2022/05/29 07:48:25;;;;;;;12.13;5.80;;;;;;;24.01;71.63;99511.50;5066543;28;20028;-35
2022/05/29 07:50:51;;;;;;;13.20;6.63;;;;;;;24.20;70.76;99505.69;5048015;28;20036;-29
2022/05/29 07:53:17;;;;;;;12.95;6.07;;;;;;;24.49;68.37;99509.63;5048131;28;20021;-33
2022/05/29 07:55:46;;;;;;;13.75;5.72;;;;;;;24.44;70.58;99480.63;5066366;28;20027;-31
2022/05/29 07:58:13;;;;;;;12.13;5.57;;;;;;;23.99;69.95;99453.84;5048247;28;20041;-31
2022/05/29 08:00:39;;;;;;;12.23;5.25;;;;;;;23.65;70.38;99444.53;5066108;28;20032;-30
2022/05/29 08:03:05;;;;;;;14.48;6.05;;;;;;;23.71;71.80;99475.13;5047902;28;20051;-32
2022/05/29 08:05:35;;;;;;;13.23;5.90;;;;;;;24.09;70.75;99461.66;5065963;28;20028;-31
2022/05/29 08:08:04;;;;;;;12.85;6.15;;;;;;;24.26;69.15;99463.53;5047710;28;20021;-30
2022/05/29 08:10:33;;;;;;;14.88;5.70;;;;;;;24.53;66.54;99472.47;5047927;28;20051;-32
2022/05/29 08:12:59;;;;;;;12.73;5.60;;;;;;;24.67;67.13;99468.38;5065946;28;20032;-31
2022/05/29 08:15:24;;;;;;;13.25;6.25;;;;;;;24.49;69.18;99485.91;5066223;28;20028;-32
2022/05/29 08:17:50;;;;;;;13.63;5.50;;;;;;;25.02;65.48;99481.03;5047507;28;20039;-30
2022/05/29 08:20:17;;;;;;;11.20;5.55;;;;;;;24.90;65.28;99475.50;5051257;28;20036;-39
2022/05/29 08:22:42;;;;;;;12.25;6.05;;;;;;;25.22;64.61;99476.78;5051828;28;20037;-31
2022/05/29 08:30:43;;;;;;;14.40;5.97;;;;;;;25.13;64.14;99490.47;5069656;28;20532;-32
2022/05/29 08:33:13;;;;;;;11.70;5.63;;;;;;;25.09;64.51;99481.34;5084792;28;20032;-30
2022/05/29 08:35:40;;;;;;;13.70;6.03;;;;;;;25.25;62.63;99457.81;5051213;28;20455;-36
2022/05/29 08:38:08;;;;;;;14.57;6.30;;;;;;;25.55;61.63;99451.50;5034945;28;20070;-31
2022/05/29 08:40:40;;;;;;;12.20;6.07;;;;;;;25.99;62.54;99447.25;5051399;28;20487;-30
2022/05/29 08:43:11;;;;;;;11.57;5.45;;;;;;;25.86;61.60;99451.03;5050951;28;20470;-31
2022/05/29 08:45:37;;;;;;;11.77;5.90;;;;;;;25.91;61.34;99439.94;5069260;28;20575;-31
2022/05/29 08:48:03;;;;;;;14.52;6.03;;;;;;;26.11;63.29;99451.13;5051043;28;20028;-31
2022/05/29 08:51:02;;;;;;;11.75;6.55;;;;;;;26.22;61.79;99449.59;5051161;28;20557;-31
2022/05/29 08:53:51;;;;;;;11.98;6.32;;;;;;;26.55;64.46;99454.19;5025272;28;20799;-31
2022/05/29 08:56:43;;;;;;;16.48;7.47;;;;;;;26.28;61.17;99445.50;5051182;28;20043;-33
2022/05/29 08:59:16;;;;;;;14.43;6.75;;;;;;;26.64;62.17;99449.41;5051080;28;20036;-31
2022/05/29 09:01:57;;;;;;;13.05;6.57;;;;;;;26.78;61.90;99438.94;5050558;28;20025;-31
2022/05/29 09:04:31;;;;;;;14.57;7.28;;;;;;;26.80;62.04;99444.84;5051296;28;20021;-30
2022/05/29 09:06:59;;;;;;;15.80;6.80;;;;;;;26.95;61.59;99439.81;5051164;28;20028;-31
2022/05/29 09:09:43;;;;;;;13.95;6.53;;;;;;;27.30;59.67;99422.91;5050902;28;20028;-36
2022/05/29 09:12:25;;;;;;;11.32;6.60;;;;;;;27.24;61.79;99422.38;5050483;28;20048;-32
2022/05/29 09:14:56;;;;;;;12.63;6.50;;;;;;;26.80;60.30;99427.66;5050989;28;20024;-33
2022/05/29 09:17:31;;;;;;;17.33;7.10;;;;;;;27.04;60.51;99432.31;5068917;28;20097;-36
2022/05/29 09:20:09;;;;;;;14.02;7.15;;;;;;;27.06;62.94;99424.53;5050369;28;20035;-31
2022/05/29 09:22:47;;;;;;;13.73;7.35;;;;;;;27.42;58.97;99420.13;5040960;28;20048;-33
2022/05/29 09:25:22;;;;;;;17.23;7.82;;;;;;;27.48;61.19;99429.69;5050306;28;20020;-32
2022/05/29 09:27:48;;;;;;;15.55;7.68;;;;;;;26.74;60.65;99416.13;5050322;28;20123;-32
2022/05/29 09:30:15;;;;;;;13.30;7.00;;;;;;;27.08;64.49;99410.53;5068142;28;20059;-33
2022/05/29 09:32:54;;;;;;;14.52;6.68;;;;;;;27.75;58.58;99413.63;5049905;28;20043;-32
2022/05/29 09:35:22;;;;;;;13.75;6.68;;;;;;;27.98;58.86;99414.66;5032982;28;20090;-30
2022/05/29 09:38:06;;;;;;;15.38;7.28;;;;;;;27.99;58.27;99399.81;5037881;28;20051;-30
2022/05/29 09:40:55;;;;;;;12.48;7.00;;;;;;;28.04;59.93;99393.28;5048425;28;20075;-33
2022/05/29 09:43:23;;;;;;;15.93;6.90;;;;;;;27.43;58.60;99388.88;5030215;28;20033;-30
2022/05/29 09:45:50;;;;;;;11.70;5.88;;;;;;;27.77;57.63;99386.69;5030155;28;20071;-35
2022/05/29 09:51:28;;;;;;;11.07;5.57;;;;;;;28.29;56.34;99373.91;5048475;28;20106;-32
2022/05/29 09:53:58;;;;;;;13.32;5.90;;;;;;;27.99;56.28;99371.59;5047632;28;20047;-29
2022/05/29 09:56:32;;;;;;;13.52;5.82;;;;;;;28.52;58.82;99387.78;5030101;28;20025;-32
2022/05/29 09:59:03;;;;;;;15.70;5.72;;;;;;;28.59;54.91;99387.97;5048005;28;20048;-36
2022/05/29 10:01:37;;;;;;;13.90;5.32;;;;;;;28.75;54.28;99383.25;5047968;28;20064;-29
2022/05/29 10:04:11;;;;;;;10.13;4.70;;;;;;;28.82;51.04;99369.66;5029889;28;20033;-35
2022/05/29 10:06:42;;;;;;;13.85;5.88;;;;;;;29.23;51.15;99361.94;5029917;28;20029;-31
2022/05/29 10:09:10;;;;;;;10.93;4.93;;;;;;;29.04;50.05;99368.19;5047631;28;20056;-36
2022/05/29 10:11:37;;;;;;;12.43;4.53;;;;;;;29.08;51.67;99365.53;5047823;28;20059;-30
2022/05/29 10:14:25;;;;;;;10.00;4.90;;;;;;;28.92;50.44;99373.81;5029561;28;20033;-34
2022/05/29 10:16:54;;;;;;;10.95;5.07;;;;;;;28.97;51.63;99370.78;5046310;28;20112;-31
2022/05/29 10:19:35;;;;;;;15.48;5.07;;;;;;;29.30;50.22;99365.97;5046270;28;20037;-30
2022/05/29 10:22:23;;;;;;;13.13;4.68;;;;;;;29.41;49.24;99342.28;5045860;28;20033;-31
2022/05/29 10:24:48;;;;;;;10.52;4.20;;;;;;;29.52;48.07;99346.00;5046722;28;20528;-32
2022/05/29 10:27:28;;;;;;;14.48;4.68;;;;;;;29.32;50.80;99323.28;5045711;28;20029;-31
2022/05/29 10:30:00;;;;;;;14.63;5.03;;;;;;;29.39;49.40;99352.81;5029506;28;20032;-31
2022/05/29 10:32:29;;;;;;;11.38;4.72;;;;;;;29.51;48.67;99341.69;5029155;28;20025;-31
2022/05/29 10:35:17;;;;;;;11.45;5.00;;;;;;;29.40;49.20;99327.75;5025928;28;20061;-32
2022/05/29 10:37:44;;;;;;;17.88;4.68;;;;;;;29.31;49.59;99323.63;5025503;28;20026;-30
2022/05/29 10:40:31;;;;;;;24.25;6.32;;;;;;;29.00;50.00;99308.88;5025993;28;20033;-35
2022/05/29 10:43:03;;;;;;;14.70;5.00;;;;;;;28.63;51.20;99295.59;5026891;28;20037;-35
2022/05/29 10:45:42;;;;;;;12.48;5.35;;;;;;;28.43;51.52;99262.59;5026930;28;20041;-35
2022/05/29 10:48:38;;;;;;;13.77;4.82;;;;;;;28.44;52.63;99288.88;5025631;28;20408;-34
2022/05/29 10:51:07;;;;;;;11.35;4.80;;;;;;;29.03;51.08;99297.16;5026506;28;20041;-41
2022/05/29 10:54:02;;;;;;;9.73;5.25;;;;;;;29.36;49.27;99260.16;5026885;28;20052;-29
2022/05/29 10:56:58;;;;;;;10.48;4.32;;;;;;;30.21;49.55;99269.03;5026131;28;20041;-34
2022/05/29 10:59:48;;;;;;;18.35;5.93;;;;;;;30.57;47.19;99268.78;5042335;28;20037;-30
2022/05/29 11:05:58;;;;;;;10.77;4.80;;;;;;;30.52;44.92;99271.84;5027297;28;20068;-30
2022/05/29 11:08:26;;;;;;;12.45;5.05;;;;;;;30.64;46.14;99255.13;5026848;28;20029;-31
2022/05/29 11:10:56;;;;;;;12.07;4.97;;;;;;;30.60;46.48;99238.56;5027089;28;20030;-36
2022/05/29 11:14:04;;;;;;;10.75;5.30;;;;;;;30.94;45.11;99241.34;5041985;28;20061;-30
2022/05/29 11:17:17;;;;;;;12.48;4.97;;;;;;;31.00;46.97;99244.56;5015669;28;20528;-33
2022/05/29 11:20:10;;;;;;;11.15;5.60;;;;;;;30.75;46.34;99245.03;5023507;28;20723;-30
2022/05/29 11:22:48;;;;;;;10.32;4.35;;;;;;;31.24;46.68;99232.19;5046694;28;20128;-30
2022/05/29 11:25:29;;;;;;;11.60;5.90;;;;;;;31.66;46.89;99233.00;5046803;28;20033;-30
2022/05/29 11:28:07;;;;;;;11.23;4.63;;;;;;;31.42;44.28;99230.41;5045186;28;20178;-32
2022/05/29 11:31:13;;;;;;;13.10;5.22;;;;;;;31.64;46.42;99228.66;5045213;28;20040;-31
2022/05/29 11:33:57;;;;;;;;;;;;;;;31.57;44.53;99228.63;5030878;28;20040;-33
2022/05/29 11:36:28;;;;;;;15.48;5.68;;;;;;;31.46;45.13;99227.72;5045137;28;19929;-31
2022/05/29 11:39:20;;;;;;;12.82;5.03;;;;;;;31.43;45.14;99211.94;5046260;28;20029;-32
2022/05/29 11:41:49;;;;;;;8.90;4.68;;;;;;;31.88;43.93;99203.66;5041382;28;20078;-34
2022/05/29 11:44:32;;;;;;;10.68;4.80;;;;;;;31.44;46.95;99188.72;5046209;28;20052;-30
2022/05/29 11:52:57;;;;;;;9.30;5.15;;;;;;;32.26;44.08;99187.72;5046342;28;20110;-30
2022/05/29 11:55:28;;;;;;;18.85;5.05;;;;;;;32.64;43.12;99194.63;5048537;28;20036;-31
2022/05/29 11:58:07;;;;;;;11.38;5.20;;;;;;;32.60;43.24;99193.81;5048691;28;20039;-32
2022/05/29 12:01:07;;;;;;;12.23;4.72;;;;;;;33.34;42.74;99197.13;5048652;28;20033;-32
2022/05/29 12:04:10;;;;;;;8.75;4.75;;;;;;;32.79;42.10;99179.66;5048676;28;20033;-32
2022/05/29 12:06:42;;;;;;;13.25;5.60;;;;;;;32.32;42.61;99186.19;5048992;28;20032;-32
2022/05/29 12:09:20;;;;;;;12.27;4.88;;;;;;;32.48;42.25;99183.88;5048574;28;20049;-34
2022/05/29 12:11:49;;;;;;;14.02;5.35;;;;;;;31.69;43.50;99157.81;5049863;28;20044;-31
2022/05/29 12:14:40;;;;;;;11.25;5.38;;;;;;;31.82;42.86;99167.38;5048637;28;20059;-31
2022/05/29 12:17:17;;;;;;;11.32;5.32;;;;;;;32.56;43.48;99157.13;5048344;28;20021;-32
2022/05/29 12:19:51;;;;;;;11.68;5.10;;;;;;;32.73;42.04;99144.56;5049683;28;20488;-33
2022/05/29 12:22:24;;;;;;;14.13;5.57;;;;;;;32.90;41.39;99141.03;5048438;28;20123;-31
2022/05/29 12:24:52;;;;;;;12.48;6.10;;;;;;;32.68;41.19;99129.16;5081964;28;20572;-30
2022/05/29 12:27:27;;;;;;;12.57;6.25;;;;;;;32.94;41.79;99119.75;5049706;28;20029;-31
2022/05/29 12:30:16;;;;;;;9.13;5.13;;;;;;;32.98;40.89;99092.91;5047876;28;20029;-33